createdAt,value
2019-03-19T00:00:28.923Z,3.30
2019-03-19T00:02:58.502Z,3.20
2019-03-19T00:05:27.891Z,3.20
2019-03-19T00:07:57.284Z,3.20
2019-03-19T00:10:26.729Z,3.20
2019-03-19T00:12:56.162Z,3.10
2019-03-19T00:15:25.605Z,3.10
2019-03-19T00:17:55.084Z,3.10
2019-03-19T00:20:24.588Z,3.00
2019-03-19T00:22:54.007Z,3.00
2019-03-19T00:25:29.808Z,3.00
2019-03-19T00:27:54.828Z,3.00
2019-03-19T00:30:24.406Z,3.00
2019-03-19T00:32:53.850Z,2.90
2019-03-19T00:35:23.337Z,2.90
2019-03-19T00:37:52.826Z,2.90
2019-03-19T00:40:22.232Z,2.90
2019-03-19T00:42:51.750Z,2.90
2019-03-19T00:45:21.139Z,2.80
2019-03-19T00:47:50.634Z,2.80
2019-03-19T00:50:20.271Z,2.80
2019-03-19T00:52:49.664Z,2.80
2019-03-19T00:55:19.088Z,2.80
2019-03-19T00:57:48.503Z,2.80
2019-03-19T01:00:19.935Z,2.80
2019-03-19T01:02:49.424Z,2.80
2019-03-19T01:05:18.924Z,2.80
2019-03-19T01:07:48.448Z,2.70
2019-03-19T01:10:18.030Z,2.70
2019-03-19T01:12:47.523Z,2.70
2019-03-19T01:15:16.995Z,2.70
2019-03-19T01:17:46.476Z,2.70
2019-03-19T01:20:16.450Z,2.70
2019-03-19T01:22:46.830Z,2.70
2019-03-19T01:25:16.282Z,2.70
2019-03-19T01:27:45.726Z,2.60
2019-03-19T01:30:16.237Z,2.60
2019-03-19T01:32:45.656Z,2.60
2019-03-19T01:35:15.099Z,2.60
2019-03-19T01:37:44.548Z,2.50
2019-03-19T01:40:14.269Z,2.50
2019-03-19T01:42:43.704Z,2.50
2019-03-19T01:45:13.823Z,2.50
2019-03-19T01:47:43.252Z,2.50
2019-03-19T01:50:13.984Z,2.40
2019-03-19T01:52:43.494Z,2.40
2019-03-19T01:55:16.426Z,2.40
2019-03-19T01:57:45.851Z,2.40
2019-03-19T02:00:16.525Z,2.40
2019-03-19T02:02:46.088Z,2.30
2019-03-19T02:05:15.658Z,2.30
2019-03-19T02:07:45.092Z,2.30
2019-03-19T02:10:15.058Z,2.30
2019-03-19T02:12:44.733Z,2.30
2019-03-19T02:15:17.393Z,2.30
2019-03-19T02:17:46.880Z,2.30
2019-03-19T02:20:18.364Z,2.20
2019-03-19T02:22:47.912Z,2.20
2019-03-19T02:25:17.326Z,2.20
2019-03-19T02:27:46.799Z,2.20
2019-03-19T02:30:17.040Z,2.20
2019-03-19T02:32:46.503Z,2.20
2019-03-19T02:35:16.011Z,2.20
2019-03-19T02:37:45.492Z,2.10
2019-03-19T02:40:16.246Z,2.10
2019-03-19T02:42:45.615Z,2.10
2019-03-19T02:45:15.464Z,2.10
2019-03-19T02:47:45.049Z,2.10
2019-03-19T02:50:15.787Z,2.10
2019-03-19T02:52:45.244Z,2.10
2019-03-19T02:55:14.812Z,2.10
2019-03-19T02:57:44.180Z,2.10
2019-03-19T03:00:19.612Z,2.10
2019-03-19T03:02:49.050Z,2.10
2019-03-19T03:05:19.942Z,2.20
2019-03-19T03:07:49.424Z,2.30
2019-03-19T03:10:18.973Z,2.30
2019-03-19T03:12:48.439Z,2.40
2019-03-19T03:15:17.820Z,2.40
2019-03-19T03:17:47.305Z,2.40
2019-03-19T03:20:17.182Z,2.40
2019-03-19T03:22:47.141Z,2.40
2019-03-19T03:25:17.533Z,2.40
2019-03-19T03:27:47.007Z,2.40
2019-03-19T03:30:18.051Z,2.40
2019-03-19T03:32:47.469Z,2.40
2019-03-19T03:35:16.897Z,2.40
2019-03-19T03:37:46.495Z,2.30
2019-03-19T03:40:16.996Z,2.30
2019-03-19T03:42:46.467Z,2.30
2019-03-19T03:45:17.037Z,2.20
2019-03-19T03:47:46.575Z,2.20
2019-03-19T03:50:16.847Z,2.20
2019-03-19T03:52:46.365Z,2.20
2019-03-19T03:55:17.776Z,2.10
2019-03-19T03:57:47.316Z,2.10
2019-03-19T04:00:21.101Z,2.10
2019-03-19T04:02:50.649Z,2.10
2019-03-19T04:05:20.328Z,2.10
2019-03-19T04:07:49.738Z,2.00
2019-03-19T04:10:19.658Z,2.10
2019-03-19T04:12:49.169Z,2.00
2019-03-19T04:15:18.933Z,2.00
2019-03-19T04:17:48.361Z,2.00
2019-03-19T04:20:18.284Z,2.00
2019-03-19T04:22:47.869Z,2.00
2019-03-19T04:25:17.333Z,2.00
2019-03-19T04:27:46.809Z,2.00
2019-03-19T04:30:19.996Z,2.00
2019-03-19T04:32:51.175Z,2.00
2019-03-19T04:35:20.591Z,1.90
2019-03-19T04:37:50.098Z,1.90
2019-03-19T04:40:19.514Z,1.90
2019-03-19T04:42:49.059Z,1.90
2019-03-19T04:45:18.592Z,1.90
2019-03-19T04:47:48.030Z,1.90
2019-03-19T04:50:17.762Z,1.90
2019-03-19T04:52:47.219Z,1.90
2019-03-19T04:55:17.403Z,1.90
2019-03-19T04:57:46.788Z,1.90
2019-03-19T05:00:19.862Z,1.90
2019-03-19T05:02:49.276Z,1.90
2019-03-19T05:05:18.945Z,1.90
2019-03-19T05:07:48.335Z,1.90
2019-03-19T05:10:18.470Z,1.90
2019-03-19T05:12:47.978Z,1.90
2019-03-19T05:15:17.518Z,2.00
2019-03-19T05:17:46.962Z,2.00
2019-03-19T05:20:17.480Z,2.00
2019-03-19T05:22:46.948Z,2.00
2019-03-19T05:25:16.352Z,2.00
2019-03-19T05:27:45.848Z,2.10
2019-03-19T05:30:19.050Z,2.10
2019-03-19T05:32:48.471Z,2.10
2019-03-19T05:35:17.921Z,2.10
2019-03-19T05:37:47.289Z,2.10
2019-03-19T05:40:17.531Z,2.10
2019-03-19T05:42:47.034Z,2.10
2019-03-19T05:45:16.792Z,2.10
2019-03-19T05:47:46.327Z,2.10
2019-03-19T05:50:20.196Z,2.10
2019-03-19T05:52:49.724Z,2.10
2019-03-19T05:55:19.227Z,2.10
2019-03-19T05:57:50.233Z,2.00
2019-03-19T06:00:21.750Z,2.00
2019-03-19T06:02:51.341Z,2.00
2019-03-19T06:05:21.451Z,2.00
2019-03-19T06:07:50.984Z,2.00
2019-03-19T06:10:20.507Z,2.00
2019-03-19T06:12:49.936Z,2.10
2019-03-19T06:15:19.502Z,2.10
2019-03-19T06:17:48.910Z,2.20
2019-03-19T06:20:21.381Z,2.20
2019-03-19T06:22:50.789Z,2.20
2019-03-19T06:25:20.246Z,2.20
2019-03-19T06:27:59.849Z,2.20
2019-03-19T06:30:26.694Z,2.30
2019-03-19T06:32:56.093Z,2.30
2019-03-19T06:35:25.610Z,2.30
2019-03-19T06:37:55.025Z,2.40
2019-03-19T06:40:24.499Z,2.40
2019-03-19T06:42:53.871Z,2.40
2019-03-19T06:45:23.568Z,2.50
2019-03-19T06:47:52.909Z,2.50
2019-03-19T06:50:22.497Z,2.60
2019-03-19T06:52:51.938Z,2.60
2019-03-19T06:55:21.667Z,2.60
2019-03-19T06:57:51.162Z,2.60
2019-03-19T07:00:23.253Z,2.70
2019-03-19T07:02:52.730Z,2.80
2019-03-19T07:05:22.716Z,2.80
2019-03-19T07:07:52.185Z,2.90
2019-03-19T07:10:22.248Z,2.90
2019-03-19T07:12:51.655Z,2.90
2019-03-19T07:15:23.206Z,3.00
2019-03-19T07:17:52.724Z,3.00
2019-03-19T07:20:26.836Z,3.10
2019-03-19T07:22:56.258Z,3.10
2019-03-19T07:25:25.754Z,3.20
2019-03-19T07:27:55.245Z,3.20
2019-03-19T07:30:25.819Z,3.30
2019-03-19T07:32:55.264Z,3.30
2019-03-19T07:35:24.676Z,3.40
2019-03-19T07:37:54.178Z,3.40
2019-03-19T07:40:23.569Z,3.50
2019-03-19T07:42:53.199Z,3.60
2019-03-19T07:45:26.179Z,3.60
2019-03-19T07:47:55.658Z,3.70
2019-03-19T07:50:25.424Z,3.80
2019-03-19T07:52:55.068Z,3.90
2019-03-19T07:55:24.493Z,3.90
2019-03-19T07:57:54.023Z,4.00
2019-03-19T08:00:23.685Z,4.10
2019-03-19T08:02:53.083Z,4.20
2019-03-19T08:05:32.520Z,4.30
2019-03-19T08:07:53.673Z,4.40
2019-03-19T08:10:23.072Z,4.50
2019-03-19T08:12:52.670Z,4.50
2019-03-19T08:15:22.399Z,4.60
2019-03-19T08:17:51.814Z,4.70
2019-03-19T08:20:22.971Z,4.80
2019-03-19T08:22:54.092Z,4.90
2019-03-19T08:25:25.161Z,5.00
2019-03-19T08:27:56.350Z,5.00
2019-03-19T08:30:27.669Z,5.10
2019-03-19T08:32:58.791Z,5.20
2019-03-19T08:35:28.306Z,5.30
2019-03-19T08:37:57.797Z,5.40
2019-03-19T08:40:27.391Z,5.50
2019-03-19T08:42:58.323Z,5.60
2019-03-19T08:45:28.081Z,5.70
2019-03-19T08:47:57.523Z,5.80
2019-03-19T08:50:27.036Z,5.80
2019-03-19T08:52:56.515Z,5.90
2019-03-19T08:55:25.973Z,6.00
2019-03-19T08:57:55.397Z,6.10
2019-03-19T09:00:28.289Z,6.20
2019-03-19T09:02:57.684Z,6.30
2019-03-19T09:05:27.185Z,6.40
2019-03-19T09:07:56.677Z,6.50
2019-03-19T09:10:26.133Z,6.60
2019-03-19T09:12:55.543Z,6.70
2019-03-19T09:15:26.790Z,6.70
2019-03-19T09:17:56.417Z,6.80
2019-03-19T09:20:26.078Z,6.90
2019-03-19T09:22:55.483Z,7.00
2019-03-19T09:25:24.897Z,7.10
2019-03-19T09:27:54.346Z,7.10
2019-03-19T09:30:24.715Z,7.20
2019-03-19T09:32:54.195Z,7.30
2019-03-19T09:35:26.047Z,7.40
2019-03-19T09:37:58.989Z,7.50
2019-03-19T09:40:25.946Z,7.60
2019-03-19T09:42:55.435Z,7.70
2019-03-19T09:45:25.030Z,7.80
2019-03-19T09:47:54.413Z,7.90
2019-03-19T09:50:27.069Z,8.00
2019-03-19T09:52:56.977Z,8.10
2019-03-19T09:55:26.457Z,8.20
2019-03-19T09:57:56.018Z,8.30
2019-03-19T10:00:25.498Z,8.40
2019-03-19T10:02:54.898Z,8.40
2019-03-19T10:05:24.415Z,8.50
2019-03-19T10:07:55.537Z,8.50
2019-03-19T10:10:25.324Z,8.60
2019-03-19T10:12:54.713Z,8.60
2019-03-19T10:15:24.308Z,8.70
2019-03-19T10:17:53.736Z,8.80
2019-03-19T10:20:24.833Z,8.90
2019-03-19T10:22:54.267Z,8.90
2019-03-19T10:25:23.683Z,9.00
2019-03-19T10:27:53.143Z,9.00
2019-03-19T10:30:25.508Z,9.00
2019-03-19T10:32:55.000Z,9.10
2019-03-19T10:35:24.505Z,9.20
2019-03-19T10:37:53.996Z,9.20
2019-03-19T10:40:23.775Z,9.30
2019-03-19T10:42:54.154Z,9.30
2019-03-19T10:45:24.446Z,9.40
2019-03-19T10:47:53.818Z,9.50
2019-03-19T10:50:25.378Z,9.50
2019-03-19T10:52:54.913Z,9.60
2019-03-19T10:55:24.413Z,9.70
2019-03-19T10:57:53.823Z,9.80
2019-03-19T11:00:24.145Z,9.80
2019-03-19T11:02:54.105Z,9.90
2019-03-19T11:05:24.233Z,10.00
2019-03-19T11:07:53.773Z,10.20
2019-03-19T11:10:23.405Z,10.30
2019-03-19T11:12:52.894Z,10.40
2019-03-19T11:15:23.515Z,10.60
2019-03-19T11:17:53.038Z,10.80
2019-03-19T11:20:22.553Z,11.00
2019-03-19T11:22:52.026Z,11.20
2019-03-19T11:25:26.449Z,11.30
2019-03-19T11:27:56.040Z,11.50
2019-03-19T11:30:26.280Z,11.60
2019-03-19T11:32:55.795Z,11.60
2019-03-19T11:35:25.502Z,11.70
2019-03-19T11:37:54.984Z,11.80
2019-03-19T11:40:25.911Z,11.90
2019-03-19T11:42:55.568Z,12.10
2019-03-19T11:45:25.118Z,12.20
2019-03-19T11:47:54.632Z,12.40
2019-03-19T11:50:28.284Z,12.60
2019-03-19T11:52:57.917Z,12.70
2019-03-19T11:55:27.494Z,12.90
2019-03-19T11:57:57.750Z,13.00
2019-03-19T12:00:29.836Z,13.10
2019-03-19T12:03:10.831Z,13.20
2019-03-19T12:05:30.593Z,13.20
2019-03-19T12:08:00.034Z,13.20
2019-03-19T12:10:29.456Z,13.30
2019-03-19T12:12:58.910Z,13.30
2019-03-19T12:15:28.487Z,13.30
2019-03-19T12:17:58.956Z,13.20
2019-03-19T12:20:28.532Z,13.30
2019-03-19T12:22:57.940Z,13.30
2019-03-19T12:25:27.388Z,13.30
2019-03-19T12:27:56.858Z,13.30
2019-03-19T12:30:26.649Z,13.30
2019-03-19T12:32:56.102Z,13.40
2019-03-19T12:35:25.704Z,13.40
2019-03-19T12:37:55.162Z,13.40
2019-03-19T12:40:35.879Z,13.40
2019-03-19T12:42:56.124Z,13.40
2019-03-19T12:45:25.636Z,13.40
2019-03-19T12:47:55.066Z,13.40
2019-03-19T12:50:25.549Z,13.40
2019-03-19T12:52:55.028Z,13.40
2019-03-19T12:55:24.656Z,13.40
2019-03-19T12:57:54.148Z,13.40
2019-03-19T13:00:34.041Z,13.40
2019-03-19T13:02:58.622Z,13.50
2019-03-19T13:05:28.004Z,13.50
2019-03-19T13:07:57.478Z,13.60
2019-03-19T13:10:27.038Z,13.60
2019-03-19T13:12:56.392Z,13.60
2019-03-19T13:15:25.913Z,13.60
2019-03-19T13:17:55.345Z,13.60
2019-03-19T13:20:24.838Z,13.60
2019-03-19T13:22:54.397Z,13.60
2019-03-19T13:25:24.723Z,13.70
2019-03-19T13:27:54.279Z,13.70
2019-03-19T13:30:25.136Z,13.70
2019-03-19T13:32:54.576Z,13.70
2019-03-19T13:35:24.001Z,13.70
2019-03-19T13:37:53.553Z,13.70
2019-03-19T13:40:23.046Z,13.70
2019-03-19T13:42:52.450Z,13.80
2019-03-19T13:45:23.967Z,13.80
2019-03-19T13:47:53.503Z,13.90
2019-03-19T13:50:23.588Z,14.00
2019-03-19T13:52:53.060Z,14.10
2019-03-19T13:55:25.386Z,14.10
2019-03-19T13:57:54.804Z,14.30
2019-03-19T14:00:24.297Z,14.40
2019-03-19T14:02:53.710Z,14.50
2019-03-19T14:05:23.194Z,14.50
2019-03-19T14:07:52.860Z,14.60
2019-03-19T14:10:22.416Z,14.60
2019-03-19T14:12:51.912Z,14.70
2019-03-19T14:15:25.068Z,14.70
2019-03-19T14:17:54.586Z,14.80
2019-03-19T14:20:24.017Z,14.80
2019-03-19T14:22:53.546Z,14.80
2019-03-19T14:25:23.879Z,14.80
2019-03-19T14:27:53.361Z,14.80
2019-03-19T14:30:23.726Z,14.70
2019-03-19T14:32:53.215Z,14.60
2019-03-19T14:35:22.699Z,14.60
2019-03-19T14:37:52.225Z,14.50
2019-03-19T14:40:24.037Z,14.50
2019-03-19T14:42:53.552Z,14.50
2019-03-19T14:45:22.932Z,14.50
2019-03-19T14:47:52.482Z,14.60
2019-03-19T14:50:23.973Z,14.60
2019-03-19T14:52:53.930Z,14.60
2019-03-19T14:55:23.400Z,14.60
2019-03-19T14:57:52.776Z,14.60
2019-03-19T15:00:23.830Z,14.60
2019-03-19T15:02:53.443Z,14.50
2019-03-19T15:05:22.903Z,14.50
2019-03-19T15:07:52.431Z,14.50
2019-03-19T15:10:22.780Z,14.40
2019-03-19T15:12:52.413Z,14.30
2019-03-19T15:15:22.456Z,14.30
2019-03-19T15:17:51.917Z,14.30
2019-03-19T15:20:22.861Z,14.20
2019-03-19T15:22:52.439Z,14.20
2019-03-19T15:25:21.965Z,14.10
2019-03-19T15:27:51.502Z,14.10
2019-03-19T15:30:21.307Z,14.00
2019-03-19T15:32:50.676Z,14.00
2019-03-19T15:35:20.194Z,13.90
2019-03-19T15:37:49.720Z,13.90
2019-03-19T15:40:21.087Z,13.80
2019-03-19T15:42:50.509Z,13.90
2019-03-19T15:45:27.964Z,13.80
2019-03-19T15:47:57.463Z,13.80
2019-03-19T15:50:26.939Z,13.80
2019-03-19T15:52:56.348Z,13.80
2019-03-19T15:55:25.757Z,13.80
2019-03-19T15:57:55.381Z,13.70
2019-03-19T16:00:24.838Z,13.70
2019-03-19T16:02:54.245Z,13.60
2019-03-19T16:05:23.661Z,13.60
2019-03-19T16:07:54.040Z,13.50
2019-03-19T16:10:23.611Z,13.40
2019-03-19T16:12:53.203Z,13.40
2019-03-19T16:15:23.336Z,13.40
2019-03-19T16:17:52.849Z,13.40
2019-03-19T16:20:22.904Z,13.40
2019-03-19T16:22:52.404Z,13.30
2019-03-19T16:25:21.938Z,13.30
2019-03-19T16:27:52.273Z,13.30
2019-03-19T16:30:21.820Z,13.30
2019-03-19T16:32:51.295Z,13.20
2019-03-19T16:35:20.934Z,13.20
2019-03-19T16:37:50.435Z,13.20
2019-03-19T16:40:20.877Z,13.20
2019-03-19T16:42:50.562Z,13.20
2019-03-19T16:45:20.134Z,13.20
2019-03-19T16:47:49.588Z,13.20
2019-03-19T16:50:20.146Z,13.20
2019-03-19T16:52:49.657Z,13.20
2019-03-19T16:55:20.010Z,13.10
2019-03-19T16:57:49.725Z,13.10
2019-03-19T17:00:21.434Z,13.00
2019-03-19T17:02:51.974Z,13.00
2019-03-19T17:05:21.595Z,13.00
2019-03-19T17:07:51.350Z,13.00
2019-03-19T17:10:33.598Z,13.00
2019-03-19T17:13:03.003Z,12.90
2019-03-19T17:15:32.460Z,12.90
2019-03-19T17:18:02.370Z,12.90
2019-03-19T17:20:31.842Z,12.80
2019-03-19T17:23:01.462Z,12.80
2019-03-19T17:25:32.252Z,12.80
2019-03-19T17:28:01.682Z,12.80
2019-03-19T17:30:36.288Z,12.70
2019-03-19T17:33:05.802Z,12.70
2019-03-19T17:35:35.228Z,12.70
2019-03-19T17:38:04.713Z,12.60
2019-03-19T17:40:41.418Z,12.70
2019-03-19T17:43:05.505Z,12.60
2019-03-19T17:45:35.011Z,12.60
2019-03-19T17:48:04.495Z,12.60
2019-03-19T17:50:36.108Z,12.50
2019-03-19T17:53:06.169Z,12.40
2019-03-19T17:55:36.558Z,12.40
2019-03-19T17:58:06.057Z,12.30
2019-03-19T18:00:42.915Z,12.30
2019-03-19T18:03:12.424Z,12.20
2019-03-19T18:05:41.881Z,12.10
2019-03-19T18:08:11.314Z,12.10
2019-03-19T18:10:40.753Z,12.10
2019-03-19T18:13:10.182Z,12.00
2019-03-19T18:15:39.599Z,12.00
2019-03-19T18:18:09.072Z,11.90
2019-03-19T18:20:38.499Z,11.90
2019-03-19T18:23:07.974Z,11.80
2019-03-19T18:25:37.406Z,11.80
2019-03-19T18:28:06.895Z,11.70
2019-03-19T18:30:36.440Z,11.70
2019-03-19T18:33:05.988Z,11.60
2019-03-19T18:35:35.482Z,11.60
2019-03-19T18:38:05.055Z,11.60
2019-03-19T18:40:34.525Z,11.50
2019-03-19T18:43:04.066Z,11.50
2019-03-19T18:45:33.517Z,11.40
2019-03-19T18:48:03.021Z,11.40
2019-03-19T18:50:32.557Z,11.30
2019-03-19T18:53:01.991Z,11.20
2019-03-19T18:55:31.509Z,11.20
2019-03-19T18:58:00.931Z,11.20
2019-03-19T19:00:30.425Z,11.10
2019-03-19T19:02:59.891Z,11.00
2019-03-19T19:05:29.410Z,11.00
2019-03-19T19:07:58.863Z,11.00
2019-03-19T19:10:28.401Z,10.90
2019-03-19T19:12:57.838Z,10.90
2019-03-19T19:15:27.261Z,10.80
2019-03-19T19:17:56.748Z,10.80
2019-03-19T19:20:26.207Z,10.80
2019-03-19T19:22:55.666Z,10.70
2019-03-19T19:25:26.379Z,10.70
2019-03-19T19:27:55.886Z,10.70
2019-03-19T19:30:30.137Z,10.70
2019-03-19T19:33:01.838Z,10.70
2019-03-19T19:35:30.733Z,10.60
2019-03-19T19:38:00.161Z,10.60
2019-03-19T19:40:29.591Z,10.60
2019-03-19T19:42:59.107Z,10.60
2019-03-19T19:45:28.543Z,10.50
2019-03-19T19:47:58.025Z,10.50
2019-03-19T19:50:27.451Z,10.50
2019-03-19T19:52:56.888Z,10.50
2019-03-19T19:55:26.339Z,10.40
2019-03-19T19:57:55.798Z,10.40
2019-03-19T20:00:25.200Z,10.30
2019-03-19T20:02:54.666Z,10.30
2019-03-19T20:05:24.136Z,10.30
2019-03-19T20:07:53.652Z,10.20
2019-03-19T20:10:25.191Z,10.10
2019-03-19T20:12:54.628Z,10.10
2019-03-19T20:15:24.239Z,10.00
2019-03-19T20:17:53.649Z,10.00
2019-03-19T20:20:27.476Z,10.00
2019-03-19T20:22:56.982Z,9.90
2019-03-19T20:25:26.453Z,9.90
2019-03-19T20:27:55.927Z,9.90
2019-03-19T20:30:28.567Z,9.80
2019-03-19T20:32:57.973Z,9.80
2019-03-19T20:35:27.488Z,9.70
2019-03-19T20:37:56.899Z,9.70
2019-03-19T20:40:26.371Z,9.70
2019-03-19T20:42:55.927Z,9.60
2019-03-19T20:45:26.461Z,9.60
2019-03-19T20:47:55.870Z,9.60
2019-03-19T20:50:30.170Z,9.60
2019-03-19T20:52:59.695Z,9.60
2019-03-19T20:55:29.109Z,9.60
2019-03-19T20:57:58.591Z,9.60
2019-03-19T21:00:28.106Z,9.60
2019-03-19T21:02:57.540Z,9.60
2019-03-19T21:05:26.996Z,9.60
2019-03-19T21:07:56.459Z,9.60
2019-03-19T21:10:26.172Z,9.60
2019-03-19T21:12:55.665Z,9.60
2019-03-19T21:15:30.190Z,9.60
2019-03-19T21:17:59.662Z,9.60
2019-03-19T21:20:29.133Z,9.60
2019-03-19T21:22:58.627Z,9.60
2019-03-19T21:25:28.057Z,9.70
2019-03-19T21:27:57.551Z,9.70
2019-03-19T21:30:27.010Z,9.60
2019-03-19T21:32:56.449Z,9.70
2019-03-19T21:35:25.935Z,9.60
2019-03-19T21:37:55.395Z,9.60
2019-03-19T21:40:24.774Z,9.70
2019-03-19T21:42:54.337Z,9.60
2019-03-19T21:45:23.965Z,9.60
2019-03-19T21:47:53.386Z,9.60
2019-03-19T21:50:23.923Z,9.60
2019-03-19T21:52:53.421Z,9.60
2019-03-19T21:55:22.923Z,9.60
2019-03-19T21:57:52.413Z,9.60
2019-03-19T22:00:26.031Z,9.60
2019-03-19T22:02:55.487Z,9.50
2019-03-19T22:05:25.022Z,9.50
2019-03-19T22:07:54.696Z,9.60
2019-03-19T22:10:24.181Z,9.50
2019-03-19T22:12:53.647Z,9.50
2019-03-19T22:15:26.164Z,9.50
2019-03-19T22:17:55.653Z,9.50
2019-03-19T22:20:25.178Z,9.50
2019-03-19T22:22:54.615Z,9.50
2019-03-19T22:25:24.073Z,9.40
2019-03-19T22:27:53.560Z,9.40
2019-03-19T22:30:22.976Z,9.40
2019-03-19T22:32:52.365Z,9.30
2019-03-19T22:35:21.802Z,9.30
2019-03-19T22:37:51.261Z,9.20
2019-03-19T22:40:20.826Z,9.20
2019-03-19T22:42:50.250Z,9.20
2019-03-19T22:45:20.132Z,9.10
2019-03-19T22:47:49.617Z,9.10
2019-03-19T22:50:19.400Z,9.10
2019-03-19T22:52:48.842Z,9.00
2019-03-19T22:55:28.464Z,9.00
2019-03-19T22:57:49.509Z,8.90
2019-03-19T23:00:31.547Z,8.90
2019-03-19T23:03:01.049Z,8.80
2019-03-19T23:05:30.593Z,8.80
2019-03-19T23:08:00.179Z,8.70
2019-03-19T23:10:29.632Z,8.70
2019-03-19T23:12:59.147Z,8.60
2019-03-19T23:15:28.656Z,8.60
2019-03-19T23:17:58.136Z,8.60
2019-03-19T23:20:28.037Z,8.50
2019-03-19T23:22:57.487Z,8.50
2019-03-19T23:25:26.926Z,8.50
2019-03-19T23:27:56.406Z,8.40
2019-03-19T23:30:26.089Z,8.40
2019-03-19T23:32:55.698Z,8.30
2019-03-19T23:35:25.228Z,8.30
2019-03-19T23:37:54.672Z,8.30
2019-03-19T23:40:24.220Z,8.20
2019-03-19T23:42:54.096Z,8.20
2019-03-19T23:45:23.529Z,8.20
2019-03-19T23:47:53.048Z,8.10
2019-03-19T23:50:22.451Z,8.10
2019-03-19T23:52:51.872Z,8.00
2019-03-19T23:55:21.366Z,8.00
2019-03-19T23:57:50.808Z,8.00
